createdAt,value
2023-05-13T00:00:07.769Z,0
2023-05-13T00:03:08.373Z,0
2023-05-13T00:06:07.883Z,0
2023-05-13T00:09:07.677Z,0
2023-05-13T00:12:07.745Z,0
2023-05-13T00:15:07.657Z,0
2023-05-13T00:18:08.009Z,0
2023-05-13T00:21:07.689Z,0
2023-05-13T00:24:07.769Z,0
2023-05-13T00:27:07.634Z,0
2023-05-13T00:30:07.738Z,0
2023-05-13T00:33:07.867Z,0
2023-05-13T00:36:07.720Z,0
2023-05-13T00:39:07.642Z,0
2023-05-13T00:42:07.673Z,0
2023-05-13T00:45:07.685Z,0
2023-05-13T00:48:07.740Z,0
2023-05-13T00:51:07.684Z,0
2023-05-13T00:54:07.669Z,0
2023-05-13T00:57:07.658Z,0
2023-05-13T01:00:07.845Z,0
2023-05-13T01:03:08.408Z,0
2023-05-13T01:06:07.743Z,0
2023-05-13T01:09:07.717Z,0
2023-05-13T01:12:07.642Z,0
2023-05-13T01:15:07.645Z,0
2023-05-13T01:18:07.944Z,0
2023-05-13T01:21:07.600Z,0
2023-05-13T01:24:07.841Z,0
2023-05-13T01:27:07.611Z,0
2023-05-13T01:30:07.585Z,0
2023-05-13T01:33:07.951Z,0
2023-05-13T01:36:07.585Z,0
2023-05-13T01:39:07.671Z,0
2023-05-13T01:42:07.685Z,0
2023-05-13T01:45:07.688Z,0
2023-05-13T01:48:07.913Z,0
2023-05-13T01:51:07.608Z,0
2023-05-13T01:54:07.646Z,0
2023-05-13T01:57:07.718Z,0
2023-05-13T02:00:07.780Z,0
2023-05-13T02:03:08.224Z,0
2023-05-13T02:06:07.617Z,0
2023-05-13T02:09:07.569Z,0
2023-05-13T02:12:07.654Z,0
2023-05-13T02:15:07.774Z,0
2023-05-13T02:18:07.988Z,0
2023-05-13T02:21:07.701Z,0
2023-05-13T02:24:07.639Z,0
2023-05-13T02:27:07.595Z,0
2023-05-13T02:30:07.657Z,0
2023-05-13T02:33:07.900Z,0
2023-05-13T02:36:07.652Z,0
2023-05-13T02:39:07.709Z,0
2023-05-13T02:42:07.647Z,0
2023-05-13T02:45:07.693Z,0
2023-05-13T02:48:08.005Z,0
2023-05-13T02:51:07.671Z,3
2023-05-13T02:54:07.686Z,3
2023-05-13T02:57:07.696Z,7
2023-05-13T03:00:07.684Z,10
2023-05-13T03:03:08.012Z,13
2023-05-13T03:06:07.647Z,20
2023-05-13T03:09:07.628Z,30
2023-05-13T03:12:07.674Z,43
2023-05-13T03:15:07.674Z,60
2023-05-13T03:18:08.096Z,83
2023-05-13T03:21:07.737Z,113
2023-05-13T03:24:07.642Z,147
2023-05-13T03:27:07.647Z,187
2023-05-13T03:30:07.819Z,243
2023-05-13T03:33:07.943Z,317
2023-05-13T03:36:08.155Z,403
2023-05-13T03:39:07.998Z,493
2023-05-13T03:42:07.700Z,627
2023-05-13T03:45:07.714Z,843
2023-05-13T03:48:07.900Z,1097
2023-05-13T03:51:07.758Z,1390
2023-05-13T03:54:07.895Z,1627
2023-05-13T03:57:07.700Z,1550
2023-05-13T04:00:07.732Z,1463
2023-05-13T04:03:07.981Z,1420
2023-05-13T04:06:07.674Z,1463
2023-05-13T04:09:07.944Z,1570
2023-05-13T04:12:07.688Z,1680
2023-05-13T04:15:07.947Z,1820
2023-05-13T04:18:08.084Z,1933
2023-05-13T04:21:07.724Z,2077
2023-05-13T04:24:07.819Z,2140
2023-05-13T04:27:08.395Z,2220
2023-05-13T04:30:07.760Z,2387
2023-05-13T04:33:07.957Z,2590
2023-05-13T04:36:07.757Z,2787
2023-05-13T04:39:07.943Z,2937
2023-05-13T04:42:07.773Z,3383
2023-05-13T04:45:07.877Z,4147
2023-05-13T04:48:07.970Z,4563
2023-05-13T04:51:08.775Z,5040
2023-05-13T04:54:07.854Z,5700
2023-05-13T04:57:07.688Z,6633
2023-05-13T05:00:07.880Z,7537
2023-05-13T05:03:08.047Z,8763
2023-05-13T05:06:07.727Z,8973
2023-05-13T05:09:07.702Z,7880
2023-05-13T05:12:07.677Z,7133
2023-05-13T05:15:07.800Z,6900
2023-05-13T05:18:08.639Z,6870
2023-05-13T05:21:09.272Z,6873
2023-05-13T05:24:07.727Z,7080
2023-05-13T05:27:07.743Z,7210
2023-05-13T05:30:08.312Z,7347
2023-05-13T05:33:08.153Z,7573
2023-05-13T05:36:07.868Z,7810
2023-05-13T05:39:07.764Z,7810
2023-05-13T05:42:07.732Z,8107
2023-05-13T05:45:07.841Z,8527
2023-05-13T05:48:08.125Z,8980
2023-05-13T05:51:07.715Z,9523
2023-05-13T05:54:07.739Z,10597
2023-05-13T05:57:07.799Z,10433
2023-05-13T06:00:07.713Z,10333
2023-05-13T06:03:08.488Z,10423
2023-05-13T06:06:07.675Z,10453
2023-05-13T06:09:07.753Z,10733
2023-05-13T06:12:08.196Z,11180
2023-05-13T06:15:07.726Z,11477
2023-05-13T06:18:08.039Z,11887
2023-05-13T06:21:07.605Z,12247
2023-05-13T06:24:07.857Z,12520
2023-05-13T06:27:07.649Z,12837
2023-05-13T06:30:07.786Z,13227
2023-05-13T06:33:09.581Z,13620
2023-05-13T06:36:07.736Z,14030
2023-05-13T06:39:07.958Z,14233
2023-05-13T06:42:07.754Z,14647
2023-05-13T06:45:07.799Z,14753
2023-05-13T06:48:07.969Z,14867
2023-05-13T06:51:07.731Z,14693
2023-05-13T06:54:07.769Z,14460
2023-05-13T06:57:07.731Z,14380
2023-05-13T07:00:08.040Z,12207
2023-05-13T07:03:08.025Z,14720
2023-05-13T07:06:07.756Z,7843
2023-05-13T07:09:12.658Z,7220
2023-05-13T07:12:07.808Z,7453
2023-05-13T07:15:07.862Z,11100
2023-05-13T07:18:08.049Z,10637
2023-05-13T07:21:07.800Z,12207
2023-05-13T07:24:07.724Z,20337
2023-05-13T07:27:07.698Z,22867
2023-05-13T07:30:07.762Z,20753
2023-05-13T07:33:07.911Z,19263
2023-05-13T07:36:07.719Z,18000
2023-05-13T07:39:09.352Z,17583
2023-05-13T07:42:07.773Z,17010
2023-05-13T07:45:07.918Z,17367
2023-05-13T07:48:08.025Z,17900
2023-05-13T07:51:07.760Z,18543
2023-05-13T07:54:07.828Z,19647
2023-05-13T07:57:07.719Z,20777
2023-05-13T08:00:07.818Z,22107
2023-05-13T08:03:08.314Z,23853
2023-05-13T08:06:07.723Z,25473
2023-05-13T08:09:07.864Z,27500
2023-05-13T08:12:07.698Z,29507
2023-05-13T08:15:07.853Z,31767
2023-05-13T08:18:08.264Z,34410
2023-05-13T08:21:07.793Z,36783
2023-05-13T08:24:07.718Z,39760
2023-05-13T08:27:07.787Z,42883
2023-05-13T08:30:07.743Z,43230
2023-05-13T08:33:08.047Z,45080
2023-05-13T08:36:07.876Z,46507
2023-05-13T08:39:07.793Z,48587
2023-05-13T08:42:07.773Z,49937
2023-05-13T08:45:07.814Z,51507
2023-05-13T08:48:08.172Z,52123
2023-05-13T08:51:07.787Z,51920
2023-05-13T08:54:07.678Z,47120
2023-05-13T08:57:07.718Z,55537
2023-05-13T09:00:07.768Z,57330
2023-05-13T09:03:07.973Z,37350
2023-05-13T09:06:07.718Z,58263
2023-05-13T09:09:07.736Z,58777
2023-05-13T09:12:07.824Z,59567
2023-05-13T09:15:07.765Z,60877
2023-05-13T09:18:08.447Z,61040
2023-05-13T09:21:07.831Z,62233
2023-05-13T09:24:10.311Z,62790
2023-05-13T09:27:07.774Z,63297
2023-05-13T09:30:07.712Z,63950
2023-05-13T09:33:08.058Z,64543
2023-05-13T09:36:07.741Z,63483
2023-05-13T09:39:07.760Z,65170
2023-05-13T09:42:11.452Z,65050
2023-05-13T09:45:07.821Z,65670
2023-05-13T09:48:08.002Z,65983
2023-05-13T09:51:07.674Z,66883
2023-05-13T09:54:07.881Z,67443
2023-05-13T09:57:07.904Z,67373
2023-05-13T10:03:08.031Z,68060
2023-05-13T10:06:10.337Z,67613
2023-05-13T10:09:07.736Z,69423
2023-05-13T10:12:07.835Z,69903
2023-05-13T10:15:07.784Z,69707
2023-05-13T10:18:11.630Z,70037
2023-05-13T10:21:07.836Z,70993
2023-05-13T10:24:07.741Z,70687
2023-05-13T10:27:07.708Z,70650
2023-05-13T10:30:10.694Z,70417
2023-05-13T10:33:08.172Z,69960
2023-05-13T10:36:07.650Z,70470
2023-05-13T10:39:07.773Z,70920
2023-05-13T10:42:07.743Z,71047
2023-05-13T10:45:07.956Z,70207
2023-05-13T10:48:08.161Z,69220
2023-05-13T10:51:07.714Z,70507
2023-05-13T10:54:07.830Z,73183
2023-05-13T10:57:07.743Z,16150
2023-05-13T11:00:07.808Z,20050
2023-05-13T11:03:08.414Z,36403
2023-05-13T11:06:07.676Z,80213
2023-05-13T11:09:07.813Z,76243
2023-05-13T11:12:07.801Z,23630
2023-05-13T11:15:07.791Z,81167
2023-05-13T11:18:08.002Z,33763
2023-05-13T11:21:11.439Z,27887
2023-05-13T11:24:07.863Z,23873
2023-05-13T11:27:07.742Z,20293
2023-05-13T11:30:07.845Z,76623
2023-05-13T11:33:07.774Z,76447
2023-05-13T11:36:07.857Z,74607
2023-05-13T11:39:07.870Z,76340
2023-05-13T11:42:07.682Z,21933
2023-05-13T11:45:07.887Z,81137
2023-05-13T11:48:07.859Z,82800
2023-05-13T11:51:07.776Z,26153
2023-05-13T11:54:07.724Z,72887
2023-05-13T11:57:07.763Z,34640
2023-05-13T12:00:07.872Z,79337
2023-05-13T12:03:08.379Z,30543
2023-05-13T12:06:07.769Z,22303
2023-05-13T12:09:08.002Z,74197
2023-05-13T12:12:07.724Z,73053
2023-05-13T12:15:07.767Z,73487
2023-05-13T12:18:07.961Z,73947
2023-05-13T12:21:07.700Z,74747
2023-05-13T12:24:07.764Z,75977
2023-05-13T12:27:09.395Z,78297
2023-05-13T12:30:07.848Z,63757
2023-05-13T12:33:07.874Z,17570
2023-05-13T12:36:07.759Z,18227
2023-05-13T12:39:08.128Z,20543
2023-05-13T12:42:07.811Z,22953
2023-05-13T12:45:07.896Z,18797
2023-05-13T12:48:08.033Z,61623
2023-05-13T12:51:09.087Z,41587
2023-05-13T12:54:07.796Z,67433
2023-05-13T12:57:07.699Z,66630
2023-05-13T13:00:07.779Z,67260
2023-05-13T13:03:08.611Z,68047
2023-05-13T13:06:07.726Z,69857
2023-05-13T13:09:07.760Z,68727
2023-05-13T13:12:07.761Z,34010
2023-05-13T13:15:07.828Z,66410
2023-05-13T13:18:08.338Z,55590
2023-05-13T13:21:07.742Z,18723
2023-05-13T13:24:07.831Z,66017
2023-05-13T13:27:07.652Z,63497
2023-05-13T13:30:07.807Z,62687
2023-05-13T13:33:08.453Z,62870
2023-05-13T13:36:07.763Z,20263
2023-05-13T13:39:07.786Z,53617
2023-05-13T13:42:07.729Z,63093
2023-05-13T13:45:07.685Z,56533
2023-05-13T13:48:08.088Z,12780
2023-05-13T13:51:07.703Z,58433
2023-05-13T13:54:07.676Z,58600
2023-05-13T13:57:07.828Z,54253
2023-05-13T14:00:07.985Z,15490
2023-05-13T14:03:08.150Z,54980
2023-05-13T14:06:07.707Z,40627
2023-05-13T14:09:07.821Z,11803
2023-05-13T14:12:07.768Z,47967
2023-05-13T14:15:07.843Z,12147
2023-05-13T14:18:07.982Z,50953
2023-05-13T14:21:07.809Z,49557
2023-05-13T14:24:07.767Z,48263
2023-05-13T14:27:07.744Z,48537
2023-05-13T14:30:07.966Z,47903
2023-05-13T14:33:07.996Z,46883
2023-05-13T14:36:07.782Z,47357
2023-05-13T14:39:07.797Z,46020
2023-05-13T14:42:07.663Z,44580
2023-05-13T14:45:07.963Z,43980
2023-05-13T14:48:07.977Z,43217
2023-05-13T14:51:07.724Z,42700
2023-05-13T14:54:07.753Z,41990
2023-05-13T14:57:07.793Z,41513
2023-05-13T15:00:08.218Z,40307
2023-05-13T15:03:08.742Z,39427
2023-05-13T15:06:07.655Z,38877
2023-05-13T15:09:07.779Z,38837
2023-05-13T15:12:07.711Z,38000
2023-05-13T15:15:07.673Z,37213
2023-05-13T15:18:08.058Z,36450
2023-05-13T15:21:07.802Z,35783
2023-05-13T15:24:07.720Z,35643
2023-05-13T15:27:07.994Z,35333
2023-05-13T15:30:07.973Z,34180
2023-05-13T15:33:07.966Z,33473
2023-05-13T15:36:08.016Z,33033
2023-05-13T15:39:09.399Z,32180
2023-05-13T15:42:07.751Z,31647
2023-05-13T15:45:07.749Z,31423
2023-05-13T15:48:08.083Z,32073
2023-05-13T15:51:07.885Z,32027
2023-05-13T15:54:07.842Z,30480
2023-05-13T15:57:07.813Z,29077
2023-05-13T16:00:08.245Z,27627
2023-05-13T16:03:08.507Z,27947
2023-05-13T16:06:07.713Z,26647
2023-05-13T16:09:07.778Z,26293
2023-05-13T16:12:07.806Z,26173
2023-05-13T16:15:07.773Z,25700
2023-05-13T16:18:08.021Z,24970
2023-05-13T16:21:08.015Z,24397
2023-05-13T16:24:08.200Z,23457
2023-05-13T16:27:07.650Z,22747
2023-05-13T16:30:07.920Z,22283
2023-05-13T16:33:08.191Z,21733
2023-05-13T16:36:07.719Z,20857
2023-05-13T16:39:07.736Z,20200
2023-05-13T16:42:07.656Z,18967
2023-05-13T16:45:07.696Z,18987
2023-05-13T16:48:08.518Z,18237
2023-05-13T16:51:07.694Z,17700
2023-05-13T16:54:07.685Z,17120
2023-05-13T16:57:07.752Z,16510
2023-05-13T17:00:07.807Z,16003
2023-05-13T17:03:08.390Z,15567
2023-05-13T17:06:07.824Z,14957
2023-05-13T17:09:07.660Z,10967
2023-05-13T17:12:07.732Z,5517
2023-05-13T17:15:07.852Z,5317
2023-05-13T17:18:08.019Z,5157
2023-05-13T17:21:07.700Z,5020
2023-05-13T17:24:07.729Z,4907
2023-05-13T17:27:07.714Z,4790
2023-05-13T17:30:07.945Z,4660
2023-05-13T17:33:07.974Z,4513
2023-05-13T17:36:08.030Z,4353
2023-05-13T17:39:07.851Z,4193
2023-05-13T17:42:07.743Z,4047
2023-05-13T17:45:07.927Z,3897
2023-05-13T17:48:08.325Z,3757
2023-05-13T17:51:07.677Z,3610
2023-05-13T17:54:07.782Z,3430
2023-05-13T17:57:07.781Z,3267
2023-05-13T18:00:07.855Z,3090
2023-05-13T18:03:08.071Z,2920
2023-05-13T18:06:08.195Z,2757
2023-05-13T18:09:07.667Z,2590
2023-05-13T18:12:07.751Z,2443
2023-05-13T18:15:07.790Z,2297
2023-05-13T18:18:08.238Z,2150
2023-05-13T18:21:07.704Z,2010
2023-05-13T18:24:07.672Z,1873
2023-05-13T18:27:07.811Z,1733
2023-05-13T18:30:07.767Z,1587
2023-05-13T18:33:08.072Z,1430
2023-05-13T18:36:08.773Z,1273
2023-05-13T18:39:07.701Z,1113
2023-05-13T18:42:07.715Z,967
2023-05-13T18:45:07.732Z,827
2023-05-13T18:48:07.990Z,683
2023-05-13T18:51:07.808Z,560
2023-05-13T18:54:07.687Z,453
2023-05-13T18:57:07.794Z,363
2023-05-13T19:00:08.001Z,287
2023-05-13T19:03:08.733Z,220
2023-05-13T19:06:07.772Z,170
2023-05-13T19:09:07.724Z,123
2023-05-13T19:12:07.692Z,87
2023-05-13T19:15:07.705Z,63
2023-05-13T19:18:08.366Z,43
2023-05-13T19:21:07.673Z,30
2023-05-13T19:24:07.697Z,20
2023-05-13T19:27:07.686Z,13
2023-05-13T19:30:08.046Z,10
2023-05-13T19:33:07.872Z,7
2023-05-13T19:36:07.707Z,3
2023-05-13T19:39:07.705Z,3
2023-05-13T19:42:07.700Z,3
2023-05-13T19:45:07.727Z,0
2023-05-13T19:48:07.934Z,0
2023-05-13T19:51:07.643Z,0
2023-05-13T19:54:07.796Z,0
2023-05-13T19:57:07.675Z,0
2023-05-13T20:00:07.889Z,0
2023-05-13T20:03:08.088Z,0
2023-05-13T20:06:07.695Z,0
2023-05-13T20:09:07.660Z,0
2023-05-13T20:12:08.275Z,0
2023-05-13T20:15:07.619Z,0
2023-05-13T20:18:07.878Z,0
2023-05-13T20:21:07.608Z,0
2023-05-13T20:24:07.669Z,0
2023-05-13T20:27:07.646Z,0
2023-05-13T20:30:07.742Z,0
2023-05-13T20:33:08.292Z,0
2023-05-13T20:36:07.684Z,0
2023-05-13T20:39:07.709Z,0
2023-05-13T20:42:07.637Z,0
2023-05-13T20:45:07.638Z,0
2023-05-13T20:48:07.661Z,0
2023-05-13T20:51:07.663Z,0
2023-05-13T20:54:07.681Z,0
2023-05-13T20:57:07.677Z,0
2023-05-13T21:00:07.728Z,0
2023-05-13T21:03:08.241Z,0
2023-05-13T21:06:07.644Z,0
2023-05-13T21:09:07.749Z,0
2023-05-13T21:12:07.662Z,0
2023-05-13T21:15:07.624Z,0
2023-05-13T21:18:07.952Z,0
2023-05-13T21:21:07.639Z,0
2023-05-13T21:24:07.660Z,0
2023-05-13T21:27:07.654Z,0
2023-05-13T21:30:07.827Z,0
2023-05-13T21:33:08.001Z,0
2023-05-13T21:36:07.853Z,0
2023-05-13T21:39:07.674Z,0
2023-05-13T21:42:07.677Z,0
2023-05-13T21:45:07.653Z,0
2023-05-13T21:48:08.071Z,0
2023-05-13T21:51:08.172Z,0
2023-05-13T21:54:07.600Z,0
2023-05-13T21:57:07.634Z,0
2023-05-13T22:00:08.844Z,0
2023-05-13T22:03:08.816Z,0
2023-05-13T22:06:07.665Z,0
2023-05-13T22:09:07.763Z,0
2023-05-13T22:12:07.707Z,0
2023-05-13T22:15:07.677Z,0
2023-05-13T22:18:08.125Z,0
2023-05-13T22:21:07.704Z,0
2023-05-13T22:24:07.785Z,0
2023-05-13T22:27:07.668Z,0
2023-05-13T22:30:07.725Z,0
2023-05-13T22:33:08.005Z,0
2023-05-13T22:36:07.639Z,0
2023-05-13T22:39:07.625Z,0
2023-05-13T22:42:07.707Z,0
2023-05-13T22:45:07.701Z,0
2023-05-13T22:48:07.904Z,0
2023-05-13T22:51:07.672Z,0
2023-05-13T22:54:07.668Z,0
2023-05-13T22:57:07.701Z,0
2023-05-13T23:00:07.852Z,0
2023-05-13T23:03:07.900Z,0
2023-05-13T23:06:07.624Z,0
2023-05-13T23:09:07.710Z,0
2023-05-13T23:12:07.701Z,0
2023-05-13T23:15:07.856Z,0
2023-05-13T23:18:07.819Z,0
2023-05-13T23:21:07.674Z,0
2023-05-13T23:24:07.629Z,0
2023-05-13T23:27:07.670Z,0
2023-05-13T23:30:07.833Z,0
2023-05-13T23:33:07.818Z,0
2023-05-13T23:36:07.668Z,0
2023-05-13T23:39:07.624Z,0
2023-05-13T23:42:07.728Z,0
2023-05-13T23:45:07.647Z,0
2023-05-13T23:48:07.849Z,0
2023-05-13T23:51:07.707Z,0
2023-05-13T23:54:07.722Z,0
2023-05-13T23:57:07.652Z,0
